Time;durP1;ratioP1;P1;durP2;ratioP2;P2;SDS_P1;SDS_P2;PMS_P1;PMS_P2;Temp;Humidity;BMP_temperature;BMP_pressure;BME280_temperature;BME280_humidity;BME280_pressure;Samples;Min_cycle;Max_cycle;Signal;HPM_P1;HPM_P2
2021/04/11 00:03:11;;;;;;;5.93;3.28;;;21.00;44.90;;;;;;20840416;28;20109;-22
2021/04/11 00:13:19;;;;;;;6.13;3.50;;;20.90;45.00;;;;;;20865617;28;20116;-18
2021/04/11 00:23:22;;;;;;;6.00;3.40;;;20.90;45.10;;;;;;20867257;28;20499;-21
2021/04/11 00:33:38;;;;;;;7.68;3.63;;;20.70;45.30;;;;;;20880934;28;20537;-21
2021/04/11 00:43:39;;;;;;;5.97;2.97;;;20.60;45.60;;;;;;20883165;28;20022;-27
2021/04/11 00:53:41;;;;;;;7.18;3.80;;;20.50;45.70;;;;;;20859741;28;20029;-19
2021/04/11 01:03:42;;;;;;;5.70;2.53;;;20.50;45.70;;;;;;20850858;28;20072;-22
2021/04/11 01:13:46;;;;;;;3.83;2.30;;;20.50;45.80;;;;;;20840991;28;20030;-21
2021/04/11 01:24:11;;;;;;;5.05;2.53;;;20.40;45.80;;;;;;20821825;28;20037;-21
2021/04/11 01:34:12;;;;;;;3.67;2.63;;;20.30;45.90;;;;;;20840117;28;20033;-23
2021/04/11 01:44:18;;;;;;;3.70;2.17;;;20.30;45.90;;;;;;20831483;28;20021;-20
2021/04/11 01:54:22;;;;;;;3.60;2.55;;;20.20;45.90;;;;;;20829079;28;20407;-23
2021/04/11 02:04:23;;;;;;;3.15;1.75;;;20.20;45.90;;;;;;20814797;28;20542;-21
2021/04/11 02:14:24;;;;;;;3.03;1.92;;;20.20;45.90;;;;;;20800704;22;20404;-23
2021/04/11 02:24:25;;;;;;;2.55;1.67;;;20.20;45.90;;;;;;20910553;28;20038;-23
2021/04/11 02:34:29;;;;;;;4.35;2.55;;;20.10;45.90;;;;;;20959041;28;20028;-22
2021/04/11 02:44:35;;;;;;;3.75;2.17;;;20.10;46.00;;;;;;20966906;28;20461;-23
2021/04/11 02:54:38;;;;;;;3.08;1.77;;;20.00;46.00;;;;;;20962804;28;20112;-22
2021/04/11 03:04:38;;;;;;;4.82;2.20;;;20.00;45.90;;;;;;20962545;28;20027;-23
2021/04/11 03:14:42;;;;;;;3.27;1.63;;;20.00;45.90;;;;;;20954964;28;20029;-20
2021/04/11 03:24:42;;;;;;;2.58;1.70;;;20.00;45.90;;;;;;20962580;28;20399;-20
2021/04/11 03:34:45;;;;;;;3.37;2.07;;;19.90;45.90;;;;;;20958321;28;20029;-23
2021/04/11 03:44:46;;;;;;;3.17;1.77;;;19.90;45.90;;;;;;20953540;28;20148;-22
2021/04/11 03:54:47;;;;;;;4.15;1.70;;;19.90;45.90;;;;;;20952612;28;20052;-23
2021/04/11 04:04:49;;;;;;;4.03;1.95;;;19.90;45.90;;;;;;20960171;28;20057;-20
2021/04/11 04:15:24;;;;;;;3.28;1.98;;;19.80;45.90;;;;;;20957647;28;20927;-23
2021/04/11 04:25:52;;;;;;;2.42;1.70;;;19.80;45.90;;;;;;20957940;28;20029;-20
2021/04/11 04:36:11;;;;;;;2.90;2.08;;;19.80;45.90;;;;;;20997544;28;20024;-22
2021/04/11 04:46:31;;;;;;;3.05;1.67;;;19.70;45.90;;;;;;20975995;28;20029;-21
2021/04/11 04:57:01;;;;;;;3.30;1.80;;;19.80;45.90;;;;;;20957455;28;20044;-22
2021/04/11 05:07:11;;;;;;;2.88;1.70;;;19.80;46.10;;;;;;20972600;28;20041;-23
2021/04/11 05:17:22;;;;;;;2.75;1.75;;;19.70;45.90;;;;;;20999640;28;20044;-20
2021/04/11 05:27:28;;;;;;;2.90;1.88;;;19.70;45.80;;;;;;20986483;28;20021;-22
2021/04/11 05:37:28;;;;;;;1.88;1.48;;;19.70;45.80;;;;;;20995411;28;20028;-21
2021/04/11 05:47:50;;;;;;;3.35;2.20;;;19.70;45.80;;;;;;20996162;28;20529;-21
2021/04/11 05:58:10;;;;;;;5.20;1.80;;;19.70;45.80;;;;;;20995075;28;20028;-23
2021/04/11 06:08:21;;;;;;;5.22;2.45;;;19.70;45.70;;;;;;20994565;28;20036;-20
2021/04/11 06:18:22;;;;;;;2.28;1.52;;;19.70;45.80;;;;;;20993950;28;20043;-23
2021/04/11 06:28:48;;;;;;;2.45;1.52;;;20.20;45.10;;;;;;20993267;28;20028;-20
2021/04/11 06:39:14;;;;;;;3.00;1.55;;;20.90;43.90;;;;;;20927493;28;20033;-21
2021/04/11 06:49:23;;;;;;;6.25;1.70;;;21.70;42.40;;;;;;20936434;28;20090;-22
2021/04/11 06:59:47;;;;;;;6.97;1.75;;;22.70;40.90;;;;;;20929639;28;20025;-22
2021/04/11 07:09:57;;;;;;;6.03;1.75;;;23.10;40.20;;;;;;20924924;28;20070;-20
2021/04/11 07:20:24;;;;;;;13.65;4.65;;;22.90;40.60;;;;;;20968088;28;20522;-23
2021/04/11 07:30:49;;;;;;;9.18;2.90;;;22.60;41.30;;;;;;20949990;28;20059;-22
2021/04/11 07:41:26;;;;;;;17.25;5.18;;;22.60;41.80;;;;;;20957667;28;20099;-22
2021/04/11 07:51:37;;;;;;;27.10;7.95;;;22.40;43.70;;;;;;20964649;28;20029;-22
2021/04/11 08:01:56;;;;;;;24.38;7.93;;;22.30;44.70;;;;;;20928863;28;20040;-20
2021/04/11 08:12:21;;;;;;;24.42;6.32;;;22.60;44.50;;;;;;20968401;28;20486;-23
2021/04/11 08:22:59;;;;;;;30.02;8.13;;;22.80;43.80;;;;;;20964977;28;20120;-19
2021/04/11 08:33:12;;;;;;;15.88;5.70;;;23.00;44.10;;;;;;20956108;28;20171;-21
2021/04/11 08:43:36;;;;;;;22.75;6.07;;;22.90;44.20;;;;;;20942877;28;20043;-19
2021/04/11 08:53:56;;;;;;;14.18;6.53;;;22.80;44.40;;;;;;20948621;28;20025;-21
2021/04/11 09:04:21;;;;;;;14.45;3.83;;;22.70;44.70;;;;;;20950459;28;20029;-19
2021/04/11 09:14:28;;;;;;;14.18;4.43;;;22.60;44.80;;;;;;20957880;28;20112;-19
2021/04/11 09:24:36;;;;;;;13.77;3.42;;;22.50;45.10;;;;;;20922257;28;20187;-21
2021/04/11 09:35:20;;;;;;;28.70;5.93;;;22.50;45.20;;;;;;20925057;28;20398;-22
2021/04/11 09:45:28;;;;;;;33.70;5.22;;;22.50;45.30;;;;;;20992872;28;20036;-19
2021/04/11 09:55:47;;;;;;;25.88;4.15;;;22.40;46.00;;;;;;20993133;28;20033;-19
2021/04/11 10:06:31;;;;;;;39.40;6.18;;;22.40;45.80;;;;;;21001071;28;20103;-23
2021/04/11 10:16:56;;;;;;;18.50;3.40;;;22.40;45.80;;;;;;20994680;28;20028;-21
2021/04/11 10:27:29;;;;;;;26.55;3.58;;;22.50;45.90;;;;;;20969429;28;20119;-22
2021/04/11 10:37:52;;;;;;;16.05;3.45;;;22.40;45.50;;;;;;20997474;28;20107;-23
2021/04/11 10:48:04;;;;;;;12.68;2.55;;;22.10;45.10;;;;;;21004031;28;20060;-21
2021/04/11 10:58:33;;;;;;;15.32;2.58;;;21.90;45.00;;;;;;21023034;28;20074;-21
2021/04/11 11:08:57;;;;;;;15.63;2.77;;;21.80;45.10;;;;;;20997390;28;20102;-23
2021/04/11 11:19:10;;;;;;;14.00;2.33;;;21.60;45.00;;;;;;20985630;28;20036;-24
2021/04/11 11:29:54;;;;;;;9.90;2.08;;;21.50;45.00;;;;;;20984203;28;20029;-22
2021/04/11 11:40:21;;;;;;;8.27;2.33;;;21.60;44.70;;;;;;20983711;28;20073;-20
2021/04/11 11:50:31;;;;;;;6.68;2.85;;;21.60;44.70;;;;;;20985489;28;20104;-19
2021/04/11 12:00:39;;;;;;;7.60;3.63;;;21.50;44.50;;;;;;20986045;28;20024;-20
2021/04/11 12:10:59;;;;;;;7.87;4.33;;;21.30;43.10;;;;;;20984259;28;20028;-20
2021/04/11 12:21:16;;;;;;;7.03;3.15;;;21.30;41.90;;;;;;20981688;28;20040;-23
2021/04/11 12:31:37;;;;;;;7.65;2.60;;;21.20;40.70;;;;;;20984725;28;20786;-23
2021/04/11 12:42:17;;;;;;;6.47;2.10;;;21.60;41.60;;;;;;20987574;28;20021;-22
2021/04/11 12:52:23;;;;;;;7.78;3.85;;;22.10;41.80;;;;;;20998115;28;20449;-21
2021/04/11 13:02:52;;;;;;;8.50;2.90;;;22.10;42.00;;;;;;21004583;28;20521;-23
2021/04/11 13:13:07;;;;;;;10.00;2.70;;;22.30;42.30;;;;;;21010606;28;20032;-23
2021/04/11 13:23:29;;;;;;;9.52;2.38;;;22.20;43.00;;;;;;21022060;28;20040;-21
2021/04/11 13:33:35;;;;;;;15.57;3.13;;;22.00;43.60;;;;;;21004278;28;20086;-20
2021/04/11 13:43:58;;;;;;;11.20;3.38;;;21.90;44.20;;;;;;21007182;28;20147;-19
2021/04/11 13:54:14;;;;;;;9.45;2.72;;;21.90;44.70;;;;;;21005907;28;20028;-22
2021/04/11 14:04:28;;;;;;;10.57;2.88;;;21.80;44.80;;;;;;21017859;28;20086;-20
2021/04/11 14:14:53;;;;;;;10.20;2.70;;;21.80;45.10;;;;;;21028619;28;20051;-22
2021/04/11 14:24:59;;;;;;;21.77;4.28;;;21.70;45.00;;;;;;21029522;28;20039;-20
2021/04/11 14:35:13;;;;;;;12.68;2.75;;;21.60;45.10;;;;;;21016571;28;20067;-23
2021/04/11 14:45:22;;;;;;;13.02;2.67;;;21.60;44.70;;;;;;21008917;28;20661;-24
2021/04/11 14:55:47;;;;;;;19.15;4.05;;;21.50;45.00;;;;;;21028373;28;20114;-23
2021/04/11 15:05:54;;;;;;;18.70;2.90;;;21.50;45.30;;;;;;21023858;28;20059;-20
2021/04/11 15:16:17;;;;;;;12.53;3.00;;;21.50;45.40;;;;;;20991218;28;20045;-23
2021/04/11 15:26:32;;;;;;;10.23;3.00;;;21.60;46.30;;;;;;20987249;28;20474;-22
2021/04/11 15:36:51;;;;;;;15.82;2.78;;;21.60;46.30;;;;;;20987568;28;20077;-22
2021/04/11 15:47:23;;;;;;;9.63;2.10;;;21.60;46.60;;;;;;20986693;28;20555;-22
2021/04/11 15:57:26;;;;;;;13.20;3.00;;;21.50;47.00;;;;;;20985124;28;20069;-22
2021/04/11 16:07:35;;;;;;;27.98;3.40;;;21.80;47.10;;;;;;20994631;28;20032;-20
2021/04/11 16:18:02;;;;;;;17.15;6.10;;;22.20;46.10;;;;;;21009110;22;20059;-19
2021/04/11 16:28:19;;;;;;;20.92;7.28;;;22.40;45.70;;;;;;20989136;28;20024;-23
2021/04/11 16:38:45;;;;;;;26.83;6.68;;;22.70;45.20;;;;;;21002216;28;20479;-23
2021/04/11 16:49:02;;;;;;;31.27;7.38;;;23.20;44.80;;;;;;21009188;28;20045;-23
2021/04/11 16:59:18;;;;;;;23.48;6.38;;;23.30;45.50;;;;;;21003790;28;20074;-21
2021/04/11 17:09:20;;;;;;;17.05;5.75;;;23.30;47.40;;;;;;21001371;28;20046;-23
2021/04/11 17:19:30;;;;;;;15.85;5.15;;;23.10;47.90;;;;;;21000696;28;20039;-23
2021/04/11 17:29:38;;;;;;;20.58;4.47;;;23.00;47.90;;;;;;20997779;28;20032;-21
2021/04/11 17:39:44;;;;;;;;;;;22.80;47.90;;;;;;20993020;28;20028;-19
2021/04/11 17:50:02;;;;;;;18.20;3.55;;;22.60;47.70;;;;;;20995198;28;19958;-24
2021/04/11 18:00:14;;;;;;;13.20;4.17;;;22.40;47.80;;;;;;20996434;28;20055;-18
2021/04/11 18:10:19;;;;;;;12.48;4.45;;;22.30;47.70;;;;;;20993541;28;20428;-21
2021/04/11 18:20:42;;;;;;;10.90;3.25;;;22.30;47.50;;;;;;20997096;28;20560;-20
2021/04/11 18:30:50;;;;;;;8.02;2.92;;;22.40;46.70;;;;;;20996423;28;20139;-18
2021/04/11 18:41:01;;;;;;;12.83;3.80;;;22.40;46.40;;;;;;20992905;28;20035;-23
2021/04/11 18:51:32;;;;;;;12.20;3.55;;;22.40;46.10;;;;;;20987686;28;20017;-19
2021/04/11 19:01:58;;;;;;;11.93;3.55;;;22.30;46.10;;;;;;20988745;28;20056;-20
2021/04/11 19:12:26;;;;;;;10.95;2.97;;;22.20;46.10;;;;;;20984088;28;20044;-22
2021/04/11 19:23:10;;;;;;;12.37;3.00;;;22.00;47.00;;;;;;20988146;28;20407;-21
2021/04/11 19:33:45;;;;;;;11.10;3.10;;;22.60;46.10;;;;;;20997613;28;20039;-21
2021/04/11 19:44:24;;;;;;;7.13;1.98;;;23.40;44.80;;;;;;21024033;28;20376;-20
2021/04/11 19:54:28;;;;;;;6.65;2.25;;;23.90;43.60;;;;;;21017959;28;20033;-21
2021/04/11 20:04:57;;;;;;;6.30;2.05;;;23.80;43.80;;;;;;20987562;28;20037;-19
2021/04/11 20:15:46;;;;;;;10.50;1.90;;;23.50;44.10;;;;;;20978988;28;20059;-21
2021/04/11 20:26:21;;;;;;;5.05;1.92;;;23.40;44.20;;;;;;20795773;28;20045;-19
2021/04/11 20:36:40;;;;;;;7.85;2.30;;;23.40;44.00;;;;;;20753906;28;20419;-21
2021/04/11 20:46:59;;;;;;;;;;;23.20;44.00;;;;;;20797276;28;20160;-20
2021/04/11 20:57:26;;;;;;;3.97;1.37;;;23.20;44.00;;;;;;20959734;28;19912;-21
2021/04/11 21:08:04;;;;;;;3.80;1.55;;;23.10;44.00;;;;;;20989188;28;20025;-20
2021/04/11 21:18:42;;;;;;;2.70;1.20;;;23.20;44.10;;;;;;21004041;28;20083;-21
2021/04/11 21:29:22;;;;;;;4.07;1.23;;;23.40;43.60;;;;;;20996152;28;20025;-22
2021/04/11 21:39:51;;;;;;;6.13;1.17;;;23.50;43.60;;;;;;21005185;28;20032;-20
2021/04/11 21:50:09;;;;;;;6.57;1.17;;;23.40;43.60;;;;;;20999448;28;20040;-23
2021/04/11 22:00:32;;;;;;;6.57;1.17;;;23.50;43.20;;;;;;20990791;28;20591;-22
2021/04/11 22:10:42;;;;;;;9.13;1.20;;;23.50;43.00;;;;;;20996586;28;20017;-22
2021/04/11 22:20:59;;;;;;;5.57;1.25;;;23.20;43.60;;;;;;21010337;28;20112;-23
2021/04/11 22:31:20;;;;;;;7.03;1.40;;;22.90;44.60;;;;;;20986942;28;20031;-23
2021/04/11 22:41:37;;;;;;;8.35;2.00;;;22.60;45.70;;;;;;21003565;28;20124;-24
2021/04/11 22:51:46;;;;;;;12.43;2.33;;;22.30;46.60;;;;;;21008977;28;20043;-23
2021/04/11 23:02:06;;;;;;;10.10;2.10;;;22.10;47.80;;;;;;21013206;28;20024;-23
2021/04/11 23:12:23;;;;;;;10.18;2.35;;;21.90;47.00;;;;;;21016376;28;20039;-22
2021/04/11 23:22:35;;;;;;;8.45;2.50;;;21.60;47.00;;;;;;21018581;28;20483;-20
2021/04/11 23:33:03;;;;;;;5.18;1.73;;;21.40;46.50;;;;;;21014745;28;20017;-24
2021/04/11 23:43:18;;;;;;;5.38;1.00;;;21.20;45.40;;;;;;21008280;28;20475;-19
2021/04/11 23:53:38;;;;;;;5.55;1.17;;;21.20;45.20;;;;;;21003641;28;20052;-22
